createdAt,value
2019-02-27T00:01:25.997Z,102115.44
2019-02-27T00:03:55.340Z,102110.21
2019-02-27T00:06:24.740Z,102113.30
2019-02-27T00:08:54.187Z,102109.39
2019-02-27T00:11:23.614Z,102105.48
2019-02-27T00:13:52.981Z,102100.70
2019-02-27T00:16:22.528Z,102096.80
2019-02-27T00:18:53.672Z,102092.00
2019-02-27T00:21:23.627Z,102095.08
2019-02-27T00:23:56.737Z,102013.34
2019-02-27T00:26:24.171Z,102094.63
2019-02-27T00:28:55.921Z,102082.45
2019-02-27T00:31:24.755Z,102084.65
2019-02-27T00:33:54.130Z,102078.53
2019-02-27T00:36:23.674Z,102077.65
2019-02-27T00:38:53.026Z,102072.41
2019-02-27T00:41:22.432Z,102070.67
2019-02-27T00:43:51.975Z,102082.87
2019-02-27T00:46:21.458Z,102078.53
2019-02-27T00:48:51.126Z,102074.19
2019-02-27T00:51:20.473Z,102060.23
2019-02-27T00:53:50.167Z,102061.13
2019-02-27T00:56:19.504Z,102059.34
2019-02-27T00:58:49.165Z,102044.55
2019-02-27T01:01:18.592Z,102048.95
2019-02-27T01:03:48.103Z,102046.34
2019-02-27T01:06:17.468Z,102045.46
2019-02-27T01:08:47.233Z,102036.73
2019-02-27T01:11:18.395Z,102032.39
2019-02-27T01:13:48.211Z,102036.75
2019-02-27T01:16:17.844Z,102026.30
2019-02-27T01:18:47.538Z,102025.88
2019-02-27T01:21:19.461Z,102015.44
2019-02-27T01:23:47.971Z,102016.77
2019-02-27T01:26:17.341Z,102003.69
2019-02-27T01:28:46.746Z,102006.31
2019-02-27T01:31:16.057Z,101997.58
2019-02-27T01:33:45.484Z,101998.47
2019-02-27T01:36:14.857Z,101926.38
2019-02-27T01:38:44.568Z,101994.12
2019-02-27T01:41:13.926Z,101978.47
2019-02-27T01:43:43.455Z,101976.69
2019-02-27T01:46:12.845Z,101926.33
2019-02-27T01:48:43.643Z,101978.45
2019-02-27T01:51:13.194Z,101961.94
2019-02-27T01:53:42.599Z,101968.02
2019-02-27T01:56:11.998Z,101951.50
2019-02-27T01:58:44.118Z,101961.03
2019-02-27T02:01:12.534Z,101958.02
2019-02-27T02:03:41.985Z,101959.32
2019-02-27T02:06:11.449Z,101950.61
2019-02-27T02:11:29.188Z,101937.56
2019-02-27T02:14:11.440Z,101928.87
2019-02-27T02:17:19.037Z,101935.82
2019-02-27T02:20:27.213Z,101925.39
2019-02-27T02:23:35.103Z,101924.50
2019-02-27T02:26:42.532Z,101927.12
2019-02-27T02:29:52.996Z,101923.66
2019-02-27T02:32:59.052Z,101908.84
2019-02-27T02:35:51.241Z,101918.44
2019-02-27T02:38:32.464Z,101899.32
2019-02-27T02:41:51.968Z,101911.47
2019-02-27T02:44:44.459Z,101914.08
2019-02-27T02:47:46.398Z,101894.98
2019-02-27T02:50:54.988Z,101894.50
2019-02-27T02:54:02.451Z,101889.29
2019-02-27T02:56:50.111Z,101878.00
2019-02-27T02:59:59.921Z,101872.36
2019-02-27T03:02:53.149Z,101868.88
2019-02-27T03:05:49.925Z,101862.77
2019-02-27T03:08:57.295Z,101858.00
2019-02-27T03:12:04.816Z,101849.70
2019-02-27T03:15:12.155Z,101851.91
2019-02-27T03:18:19.504Z,101848.44
2019-02-27T03:21:28.725Z,101792.45
2019-02-27T03:24:36.049Z,101833.27
2019-02-27T03:27:43.383Z,101825.41
2019-02-27T03:30:39.732Z,101819.30
2019-02-27T03:33:47.134Z,101810.56
2019-02-27T03:36:43.839Z,101807.10
2019-02-27T03:39:51.169Z,101803.19
2019-02-27T03:42:58.587Z,101802.73
2019-02-27T03:46:06.334Z,101810.57
2019-02-27T03:49:03.799Z,101812.36
2019-02-27T03:51:59.917Z,101814.08
2019-02-27T03:55:02.761Z,101794.91
2019-02-27T03:57:57.677Z,101805.38
2019-02-27T04:00:53.810Z,101794.09
2019-02-27T04:03:54.244Z,101792.34
2019-02-27T04:06:57.448Z,101797.58
2019-02-27T04:09:26.858Z,101797.17
2019-02-27T04:11:56.190Z,101795.00
2019-02-27T04:14:44.764Z,101796.30
2019-02-27T04:17:32.213Z,101795.89
2019-02-27T04:20:01.706Z,101785.00
2019-02-27T04:22:36.203Z,101781.08
2019-02-27T04:25:02.207Z,101767.56
2019-02-27T04:27:31.784Z,101762.34
2019-02-27T04:30:01.118Z,101755.80
2019-02-27T04:32:30.738Z,101747.11
2019-02-27T04:35:00.286Z,101740.12
2019-02-27T04:37:30.044Z,101741.42
2019-02-27T04:39:59.439Z,101734.50
2019-02-27T04:42:29.268Z,101735.80
2019-02-27T04:45:17.492Z,101734.06
2019-02-27T04:47:46.865Z,101734.06
2019-02-27T04:50:16.288Z,101734.50
2019-02-27T04:52:45.680Z,101725.36
2019-02-27T04:55:15.627Z,101721.02
2019-02-27T04:57:47.240Z,101705.80
2019-02-27T05:00:35.776Z,101703.58
2019-02-27T05:03:05.393Z,101701.42
2019-02-27T05:08:26.862Z,101703.14
2019-02-27T05:10:54.234Z,101700.95
2019-02-27T05:13:23.664Z,101694.86
2019-02-27T05:18:29.469Z,101693.11
2019-02-27T05:21:19.158Z,101610.00
2019-02-27T05:24:08.720Z,101695.73
2019-02-27T05:26:38.223Z,101696.62
2019-02-27T05:29:07.791Z,101687.48
2019-02-27T05:31:37.236Z,101690.98
2019-02-27T05:34:06.688Z,101685.76
2019-02-27T05:36:37.157Z,101689.67
2019-02-27T05:39:27.720Z,101685.30
2019-02-27T05:41:57.102Z,101687.92
2019-02-27T05:44:26.809Z,101698.37
2019-02-27T05:46:56.235Z,101688.39
2019-02-27T05:52:15.100Z,101690.98
2019-02-27T05:54:45.565Z,101695.33
2019-02-27T05:57:15.414Z,101692.30
2019-02-27T05:59:44.823Z,101682.30
2019-02-27T06:02:14.392Z,101684.00
2019-02-27T06:04:44.137Z,101687.89
2019-02-27T06:07:18.709Z,101681.84
2019-02-27T06:09:46.324Z,101635.06
2019-02-27T06:12:25.745Z,101671.42
2019-02-27T06:14:56.501Z,101666.20
2019-02-27T06:17:26.725Z,101662.72
2019-02-27T06:20:15.834Z,101658.41
2019-02-27T06:22:46.290Z,101644.52
2019-02-27T06:25:21.646Z,101649.75
2019-02-27T06:27:48.469Z,101658.91
2019-02-27T06:33:11.623Z,101667.67
2019-02-27T06:35:40.260Z,101666.38
2019-02-27T06:38:09.949Z,101655.09
2019-02-27T06:43:27.949Z,101647.30
2019-02-27T06:45:57.526Z,101655.11
2019-02-27T06:48:26.845Z,101607.45
2019-02-27T06:50:58.309Z,101603.06
2019-02-27T06:53:27.555Z,101603.06
2019-02-27T06:55:56.962Z,101636.76
2019-02-27T06:58:26.367Z,101611.61
2019-02-27T07:01:14.727Z,101635.80
2019-02-27T07:03:44.239Z,101636.63
2019-02-27T07:06:13.567Z,101628.76
2019-02-27T07:11:18.575Z,101618.21
2019-02-27T07:13:48.092Z,101631.19
2019-02-27T07:16:17.509Z,101630.24
2019-02-27T07:18:46.870Z,101574.80
2019-02-27T07:21:16.465Z,101626.64
2019-02-27T07:23:45.831Z,101580.72
2019-02-27T07:26:15.809Z,101622.23
2019-02-27T07:28:46.431Z,101526.94
2019-02-27T07:31:18.540Z,101615.58
2019-02-27T07:33:48.269Z,101616.02
2019-02-27T07:36:38.506Z,101619.40
2019-02-27T07:39:27.053Z,101621.09
2019-02-27T07:41:56.400Z,101619.28
2019-02-27T07:44:26.007Z,101618.71
2019-02-27T07:46:57.582Z,101618.64
2019-02-27T07:49:48.228Z,101609.00
2019-02-27T07:52:17.512Z,101607.58
2019-02-27T07:54:47.738Z,101597.45
2019-02-27T07:57:28.403Z,101600.80
2019-02-27T07:59:57.832Z,101602.44
2019-02-27T08:02:27.214Z,101600.19
2019-02-27T08:04:56.661Z,101591.45
2019-02-27T08:10:40.052Z,101597.45
2019-02-27T08:13:09.399Z,101596.41
2019-02-27T08:15:39.117Z,101588.55
2019-02-27T08:18:08.540Z,101575.16
2019-02-27T08:20:38.463Z,101588.20
2019-02-27T08:23:07.794Z,101586.94
2019-02-27T08:25:37.311Z,101595.59
2019-02-27T08:28:06.663Z,101547.04
2019-02-27T08:30:55.399Z,101594.42
2019-02-27T08:33:43.929Z,101563.95
2019-02-27T08:36:13.701Z,101594.48
2019-02-27T08:39:01.924Z,101543.37
2019-02-27T08:41:31.626Z,101582.50
2019-02-27T08:44:02.627Z,101583.24
2019-02-27T08:46:33.995Z,101586.63
2019-02-27T08:49:03.033Z,101583.00
2019-02-27T08:51:32.378Z,101578.52
2019-02-27T08:54:01.813Z,101571.45
2019-02-27T08:56:31.153Z,101574.83
2019-02-27T08:59:05.044Z,101582.98
2019-02-27T09:04:20.547Z,101575.35
2019-02-27T09:06:49.868Z,101572.20
2019-02-27T09:09:19.262Z,101567.30
2019-02-27T09:11:48.716Z,101565.44
2019-02-27T09:14:18.214Z,101553.92
2019-02-27T09:16:47.528Z,101552.91
2019-02-27T09:19:17.107Z,101557.19
2019-02-27T09:21:46.431Z,101558.00
2019-02-27T09:24:15.754Z,101552.63
2019-02-27T09:26:45.141Z,101554.27
2019-02-27T09:29:18.455Z,101552.49
2019-02-27T09:31:50.862Z,101541.89
2019-02-27T09:34:16.901Z,101547.52
2019-02-27T09:36:46.217Z,101540.08
2019-02-27T09:39:15.546Z,101536.48
2019-02-27T09:42:03.890Z,101534.19
2019-02-27T09:44:36.371Z,101528.36
2019-02-27T09:47:04.683Z,101523.84
2019-02-27T09:49:53.342Z,101468.59
2019-02-27T09:52:23.770Z,101527.89
2019-02-27T09:54:54.875Z,101522.72
2019-02-27T09:57:27.064Z,101512.94
2019-02-27T09:59:56.191Z,101461.53
2019-02-27T10:02:25.535Z,101506.66
2019-02-27T10:04:55.014Z,101504.87
2019-02-27T10:07:24.491Z,101506.59
2019-02-27T10:09:54.166Z,101483.98
2019-02-27T10:12:27.121Z,101505.45
2019-02-27T10:14:54.899Z,101503.11
2019-02-27T10:17:24.328Z,101493.39
2019-02-27T10:19:53.843Z,101493.72
2019-02-27T10:22:42.247Z,101498.81
2019-02-27T10:25:11.675Z,101498.70
2019-02-27T10:27:41.277Z,101488.55
2019-02-27T10:30:11.750Z,101482.48
2019-02-27T10:32:42.349Z,101480.06
2019-02-27T10:38:07.168Z,101473.20
2019-02-27T10:40:36.557Z,101464.83
2019-02-27T10:43:05.914Z,101421.62
2019-02-27T10:48:42.614Z,101451.26
2019-02-27T10:51:11.921Z,101440.87
2019-02-27T10:53:41.385Z,101435.34
2019-02-27T10:56:10.718Z,101374.54
2019-02-27T10:58:40.718Z,101428.50
2019-02-27T11:01:10.023Z,101415.74
2019-02-27T11:03:41.609Z,101421.17
2019-02-27T11:09:42.244Z,101418.83
2019-02-27T11:12:11.556Z,101413.77
2019-02-27T11:14:41.129Z,101401.02
2019-02-27T11:17:29.380Z,101403.10
2019-02-27T11:19:58.678Z,101395.16
2019-02-27T11:22:31.401Z,101389.70
2019-02-27T11:24:59.306Z,101349.30
2019-02-27T11:27:28.739Z,101384.34
2019-02-27T11:30:16.970Z,101379.87
2019-02-27T11:32:46.340Z,101376.74
2019-02-27T11:35:15.865Z,101369.19
2019-02-27T11:37:47.481Z,101377.69
2019-02-27T11:40:18.711Z,101359.27
2019-02-27T11:42:48.138Z,101327.91
2019-02-27T11:45:36.555Z,101359.06
2019-02-27T11:48:05.857Z,101339.21
2019-02-27T11:50:35.181Z,101339.21
2019-02-27T11:53:04.515Z,101341.14
2019-02-27T11:55:34.404Z,101332.81
2019-02-27T11:58:05.413Z,101330.61
2019-02-27T12:00:35.105Z,101321.67
2019-02-27T12:03:04.436Z,101318.83
2019-02-27T12:05:34.561Z,101302.92
2019-02-27T12:08:25.766Z,101298.11
2019-02-27T12:10:55.081Z,101298.11
2019-02-27T12:13:24.359Z,101292.84
2019-02-27T12:15:53.666Z,101292.34
2019-02-27T12:21:11.494Z,101249.64
2019-02-27T12:24:00.363Z,101275.58
2019-02-27T12:26:29.686Z,101276.36
2019-02-27T12:28:59.179Z,101276.36
2019-02-27T12:31:28.469Z,101273.67
2019-02-27T12:34:02.412Z,101265.94
2019-02-27T12:36:28.924Z,101273.11
2019-02-27T12:38:58.230Z,101264.93
2019-02-27T12:41:29.956Z,101256.33
2019-02-27T12:43:58.611Z,101241.02
2019-02-27T12:46:28.243Z,101234.09
2019-02-27T12:48:57.536Z,101234.09
2019-02-27T12:51:27.182Z,101223.48
2019-02-27T12:53:56.479Z,101208.43
2019-02-27T12:59:01.830Z,101169.89
2019-02-27T13:01:31.172Z,101214.36
2019-02-27T13:04:00.916Z,101210.02
2019-02-27T13:06:34.404Z,101201.19
2019-02-27T13:09:01.347Z,101181.84
2019-02-27T13:11:30.669Z,101183.70
2019-02-27T13:14:00.395Z,101174.34
2019-02-27T13:16:49.591Z,101120.66
2019-02-27T13:19:19.611Z,101167.39
2019-02-27T13:21:49.348Z,101141.95
2019-02-27T13:27:30.630Z,101143.27
2019-02-27T13:30:08.464Z,101108.24
2019-02-27T13:32:31.390Z,101126.95
2019-02-27T13:37:36.388Z,101108.63
2019-02-27T13:40:07.814Z,101099.27
2019-02-27T13:42:37.380Z,101097.02
2019-02-27T13:45:12.554Z,101099.02
2019-02-27T13:47:39.460Z,101102.09
2019-02-27T13:53:03.945Z,101099.40
2019-02-27T13:55:33.300Z,101080.94
2019-02-27T13:58:03.714Z,101084.95
2019-02-27T14:00:34.125Z,101072.90
2019-02-27T14:03:03.419Z,101076.66
2019-02-27T14:05:36.029Z,101076.30
2019-02-27T14:10:53.303Z,101063.80
2019-02-27T14:13:23.666Z,101051.73
2019-02-27T14:15:52.977Z,101052.06
2019-02-27T14:18:22.371Z,101055.50
2019-02-27T14:20:51.812Z,101045.88
2019-02-27T14:23:21.165Z,101052.60
2019-02-27T14:25:50.499Z,101060.39
2019-02-27T14:28:21.054Z,101051.67
2019-02-27T14:30:51.011Z,101040.45
2019-02-27T14:33:20.771Z,101037.30
2019-02-27T14:35:50.173Z,101025.95
2019-02-27T14:38:21.941Z,101027.69
2019-02-27T14:43:28.483Z,101009.87
2019-02-27T14:45:57.824Z,101006.59
2019-02-27T14:48:27.620Z,100993.92
2019-02-27T14:50:57.058Z,100899.95
2019-02-27T14:53:26.516Z,100984.70
2019-02-27T14:55:55.862Z,100982.19
2019-02-27T14:58:44.102Z,100982.59
2019-02-27T15:01:14.470Z,100978.38
2019-02-27T15:03:44.779Z,100922.60
2019-02-27T15:06:15.951Z,100980.66
2019-02-27T15:08:45.577Z,100972.83
2019-02-27T15:11:14.957Z,100973.75
2019-02-27T15:13:44.433Z,100966.81
2019-02-27T15:16:15.338Z,100961.83
2019-02-27T15:18:45.380Z,100959.14
2019-02-27T15:21:14.816Z,100943.97
2019-02-27T15:24:03.254Z,100959.91
2019-02-27T15:26:33.152Z,100908.37
2019-02-27T15:29:03.146Z,100939.95
2019-02-27T15:31:34.655Z,100933.37
2019-02-27T15:34:11.836Z,100919.84
2019-02-27T15:36:39.306Z,100914.31
2019-02-27T15:39:29.692Z,100921.34
2019-02-27T15:42:01.037Z,100906.03
2019-02-27T15:44:31.349Z,100898.38
2019-02-27T15:47:02.390Z,100898.38
2019-02-27T15:49:31.877Z,100879.59
2019-02-27T15:52:06.411Z,100868.29
2019-02-27T15:54:32.262Z,100868.48
2019-02-27T15:57:01.794Z,100870.38
2019-02-27T15:59:31.153Z,100862.02
2019-02-27T16:02:03.543Z,100858.39
2019-02-27T16:04:31.869Z,100855.22
2019-02-27T16:07:01.523Z,100842.12
2019-02-27T16:09:31.797Z,100799.67
2019-02-27T16:12:01.827Z,100823.81
2019-02-27T16:14:31.194Z,100818.30
2019-02-27T16:17:00.789Z,100811.55
2019-02-27T16:19:30.125Z,100818.90
2019-02-27T16:21:59.448Z,100811.38
2019-02-27T16:24:28.947Z,100813.13
2019-02-27T16:27:01.264Z,100795.08
2019-02-27T16:29:29.450Z,100801.66
2019-02-27T16:32:17.868Z,100794.40
2019-02-27T16:34:47.423Z,100753.42
2019-02-27T16:37:21.941Z,100768.58
2019-02-27T16:39:48.191Z,100802.73
2019-02-27T16:42:18.133Z,100808.05
2019-02-27T16:44:47.453Z,100800.28
2019-02-27T16:47:19.902Z,100791.62
2019-02-27T16:49:50.455Z,100693.92
2019-02-27T16:52:19.117Z,100763.70
2019-02-27T16:54:50.649Z,100762.52
2019-02-27T16:57:24.128Z,100757.45
2019-02-27T16:59:51.097Z,100742.27
2019-02-27T17:02:20.455Z,100739.77
2019-02-27T17:04:50.185Z,100736.90
2019-02-27T17:07:38.740Z,100732.88
2019-02-27T17:13:04.857Z,100731.05
2019-02-27T17:15:36.017Z,100688.66
2019-02-27T17:18:27.843Z,100710.22
2019-02-27T17:20:55.428Z,100704.27
2019-02-27T17:23:24.967Z,100705.45
2019-02-27T17:25:54.397Z,100691.89
2019-02-27T17:28:24.022Z,100685.38
2019-02-27T17:31:12.827Z,100699.01
2019-02-27T17:33:43.587Z,100692.44
2019-02-27T17:36:32.634Z,100654.81
2019-02-27T17:41:53.459Z,100611.08
2019-02-27T17:44:22.831Z,100713.05
2019-02-27T17:46:54.683Z,100704.91
2019-02-27T17:49:25.469Z,100688.45
2019-02-27T17:51:54.227Z,100685.17
2019-02-27T17:54:23.705Z,100684.50
2019-02-27T17:56:53.033Z,100690.42
2019-02-27T17:59:22.453Z,100672.78
2019-02-27T18:01:51.742Z,100679.02
2019-02-27T18:04:21.274Z,100670.39
2019-02-27T18:06:50.578Z,100675.77
2019-02-27T18:09:23.437Z,100664.45
2019-02-27T18:11:52.526Z,100655.92
2019-02-27T18:14:24.945Z,100645.98
2019-02-27T18:16:54.188Z,100649.17
2019-02-27T18:19:23.475Z,100652.34
2019-02-27T18:21:53.056Z,100657.59
2019-02-27T18:24:41.307Z,100650.22
2019-02-27T18:27:10.659Z,100637.75
2019-02-27T18:29:41.178Z,100628.27
2019-02-27T18:32:11.103Z,100618.30
2019-02-27T18:38:27.545Z,100604.75
2019-02-27T18:40:55.521Z,100604.23
2019-02-27T18:43:27.227Z,100607.38
2019-02-27T18:45:55.995Z,100599.61
2019-02-27T18:48:25.361Z,100592.40
2019-02-27T18:50:55.931Z,100578.20
2019-02-27T18:53:25.821Z,100585.39
2019-02-27T18:58:52.025Z,100560.27
2019-02-27T19:06:47.604Z,100565.47
2019-02-27T19:09:16.924Z,100557.71
2019-02-27T19:11:47.428Z,100547.39
2019-02-27T19:14:17.512Z,100550.31
2019-02-27T19:16:46.962Z,100541.69
2019-02-27T19:22:08.074Z,100532.36
2019-02-27T19:24:35.776Z,100529.05
2019-02-27T19:27:05.301Z,100515.66
2019-02-27T19:29:53.762Z,100518.84
2019-02-27T19:32:24.147Z,100514.64
2019-02-27T19:34:57.096Z,100495.53
2019-02-27T19:37:26.475Z,100405.97
2019-02-27T19:39:57.085Z,100491.83
2019-02-27T19:42:27.860Z,100473.70
2019-02-27T19:44:57.305Z,100454.16
2019-02-27T19:47:45.696Z,100457.70
2019-02-27T19:50:15.333Z,100469.00
2019-02-27T19:52:44.675Z,100475.94
2019-02-27T19:55:14.366Z,100482.11
2019-02-27T19:57:43.838Z,100479.12
2019-02-27T20:03:10.380Z,100456.38
2019-02-27T20:05:40.317Z,100436.20
2019-02-27T20:08:10.939Z,100404.47
2019-02-27T20:10:40.993Z,100454.48
2019-02-27T20:13:49.664Z,100424.13
2019-02-27T20:16:20.690Z,100411.76
2019-02-27T20:18:54.903Z,100427.59
2019-02-27T20:24:01.074Z,100408.70
2019-02-27T20:29:04.285Z,100404.14
2019-02-27T20:31:33.394Z,100357.51
2019-02-27T20:34:02.786Z,100401.47
2019-02-27T20:42:15.483Z,100368.09
2019-02-27T20:44:44.801Z,100358.64
2019-02-27T20:50:02.597Z,100265.22
2019-02-27T20:52:31.903Z,100255.28
2019-02-27T20:55:01.427Z,100337.92
2019-02-27T20:57:30.747Z,100340.16
2019-02-27T21:00:02.161Z,100350.73
2019-02-27T21:02:31.406Z,100312.05
2019-02-27T21:05:00.794Z,100346.39
2019-02-27T21:07:30.091Z,100339.45
2019-02-27T21:09:59.560Z,100341.38
2019-02-27T21:12:28.845Z,100345.95
2019-02-27T21:14:58.588Z,100341.70
2019-02-27T21:17:27.936Z,100349.17
2019-02-27T21:19:57.328Z,100344.38
2019-02-27T21:22:27.754Z,100340.12
2019-02-27T21:24:57.652Z,100344.55
2019-02-27T21:27:28.472Z,100335.92
2019-02-27T21:29:58.075Z,100342.52
2019-02-27T21:32:46.346Z,100331.34
2019-02-27T21:35:16.190Z,100321.43
2019-02-27T21:37:45.776Z,100321.64
2019-02-27T21:40:28.906Z,100316.30
2019-02-27T21:42:50.815Z,100318.09
2019-02-27T21:45:19.043Z,100309.48
2019-02-27T21:48:07.345Z,100309.88
2019-02-27T21:50:39.618Z,100305.45
2019-02-27T21:53:07.709Z,100302.55
2019-02-27T21:55:37.212Z,100285.59
2019-02-27T22:00:54.863Z,100292.86
2019-02-27T22:03:24.295Z,100285.71
2019-02-27T22:05:53.770Z,100282.23
2019-02-27T22:08:25.139Z,100280.09
2019-02-27T22:10:54.336Z,100277.47
2019-02-27T22:13:29.465Z,100280.86
2019-02-27T22:16:14.141Z,100217.31
2019-02-27T22:19:02.480Z,100284.06
2019-02-27T22:21:34.164Z,100278.61
2019-02-27T22:24:02.863Z,100283.23
2019-02-27T22:26:34.259Z,100286.56
2019-02-27T22:29:03.176Z,100283.11
2019-02-27T22:31:32.512Z,100271.33
2019-02-27T22:34:01.794Z,100278.38
2019-02-27T22:36:31.138Z,100265.67
2019-02-27T22:39:01.174Z,100276.09
2019-02-27T22:41:32.057Z,100266.48
2019-02-27T22:44:20.433Z,100270.30
2019-02-27T22:46:49.825Z,100261.94
2019-02-27T22:49:19.209Z,100259.44
2019-02-27T22:51:48.581Z,100261.63
2019-02-27T22:54:18.051Z,100248.27
2019-02-27T22:56:51.572Z,100254.31
2019-02-27T22:59:18.452Z,100242.59
2019-02-27T23:01:53.636Z,100239.61
2019-02-27T23:04:22.905Z,100231.88
2019-02-27T23:06:52.229Z,100220.86
2019-02-27T23:09:22.246Z,100225.00
2019-02-27T23:11:51.642Z,100218.91
2019-02-27T23:14:21.111Z,100227.29
2019-02-27T23:16:50.962Z,100221.25
2019-02-27T23:19:20.265Z,100220.75
2019-02-27T23:21:49.752Z,100207.72
2019-02-27T23:24:19.187Z,100201.73
2019-02-27T23:27:07.639Z,100196.56
2019-02-27T23:29:39.656Z,100198.31
2019-02-27T23:32:08.239Z,100189.69
2019-02-27T23:34:38.411Z,100184.51
2019-02-27T23:37:08.707Z,100181.09
2019-02-27T23:42:27.844Z,100136.23
2019-02-27T23:44:57.637Z,100190.53
2019-02-27T23:47:28.717Z,100183.99
2019-02-27T23:49:58.040Z,100172.28
2019-02-27T23:52:27.314Z,100167.10
2019-02-27T23:54:56.654Z,100162.80
2019-02-27T23:57:25.915Z,100167.64
2019-02-27T23:59:55.207Z,100168.14
